Time;durP1;ratioP1;P1;durP2;ratioP2;P2;SDS_P1;SDS_P2;PMS_P1;PMS_P2;Temp;Humidity;BMP_temperature;BMP_pressure;BME280_temperature;BME280_humidity;BME280_pressure;Samples;Min_cycle;Max_cycle;Signal;HPM_P1;HPM_P2
2022/11/29 00:01:22;;;;;;;36.22;14.73;;;;;;;9.77;71.12;101553.88;5051615;28;20070;-43
2022/11/29 00:03:48;;;;;;;33.13;14.35;;;;;;;9.73;71.18;101543.34;5052036;28;20466;-43
2022/11/29 00:06:16;;;;;;;35.70;14.57;;;;;;;9.71;71.55;101545.91;5051564;28;20037;-43
2022/11/29 00:08:42;;;;;;;42.05;15.45;;;;;;;9.68;71.11;101540.63;5051668;28;20029;-43
2022/11/29 00:11:10;;;;;;;36.53;15.00;;;;;;;9.68;71.41;101547.56;5051444;28;20390;-44
2022/11/29 00:13:36;;;;;;;34.40;14.07;;;;;;;9.70;70.63;101551.94;5051965;28;20028;-45
2022/11/29 00:16:03;;;;;;;32.45;13.63;;;;;;;9.61;71.31;101551.72;5051968;28;20385;-42
2022/11/29 00:18:29;;;;;;;32.35;12.90;;;;;;;9.60;71.07;101551.66;5051629;28;20126;-43
2022/11/29 00:20:54;;;;;;;34.55;13.63;;;;;;;9.61;71.35;101554.31;5051416;28;20485;-43
2022/11/29 00:23:19;;;;;;;31.02;12.98;;;;;;;9.54;71.45;101554.97;5051823;28;20105;-44
2022/11/29 00:25:45;;;;;;;35.95;13.57;;;;;;;9.57;71.73;101562.00;5051892;28;20029;-44
2022/11/29 00:28:10;;;;;;;31.23;12.70;;;;;;;9.56;71.48;101555.91;5052119;28;20119;-44
2022/11/29 00:30:35;;;;;;;38.05;13.48;;;;;;;9.56;71.24;101560.22;5052266;28;20307;-42
2022/11/29 00:33:01;;;;;;;36.08;13.43;;;;;;;9.52;71.43;101559.25;5053389;28;20112;-42
2022/11/29 00:35:27;;;;;;;29.60;12.50;;;;;;;9.50;71.17;101558.34;5053320;28;20025;-42
2022/11/29 00:37:52;;;;;;;30.17;12.00;;;;;;;9.47;71.23;101555.63;5053554;28;20393;-43
2022/11/29 00:40:18;;;;;;;32.65;12.40;;;;;;;9.51;71.33;101554.00;5052136;28;20021;-40
2022/11/29 00:42:43;;;;;;;31.70;12.43;;;;;;;9.59;70.72;101558.59;5052658;28;20481;-43
2022/11/29 00:45:09;;;;;;;29.77;12.77;;;;;;;9.55;70.63;101564.56;5051820;28;20047;-43
2022/11/29 00:47:34;;;;;;;25.48;11.82;;;;;;;9.48;70.96;101569.53;5051173;28;20424;-40
2022/11/29 00:49:59;;;;;;;26.77;11.90;;;;;;;9.51;70.92;101572.25;5051254;28;20323;-44
2022/11/29 00:52:25;;;;;;;32.33;13.27;;;;;;;9.37;71.04;101569.22;5052244;28;20111;-43
2022/11/29 00:54:50;;;;;;;30.98;13.02;;;;;;;9.29;71.33;101562.91;5051265;28;20017;-46
2022/11/29 00:57:15;;;;;;;35.15;12.50;;;;;;;9.31;71.37;101563.84;5052543;28;20400;-45
2022/11/29 00:59:40;;;;;;;33.63;12.82;;;;;;;9.29;71.14;101565.50;5052623;28;20033;-43
2022/11/29 01:02:06;;;;;;;35.10;13.15;;;;;;;9.29;71.27;101574.19;5053987;28;20021;-43
2022/11/29 01:04:31;;;;;;;36.30;12.90;;;;;;;9.29;71.20;101574.19;5053478;28;20029;-48
2022/11/29 01:06:56;;;;;;;39.22;14.30;;;;;;;9.25;71.21;101572.34;5052825;28;20569;-43
2022/11/29 01:09:22;;;;;;;34.58;13.23;;;;;;;9.29;70.51;101571.59;5051658;28;20025;-43
2022/11/29 01:11:48;;;;;;;41.67;14.70;;;;;;;9.15;70.96;101579.84;5052956;28;20025;-43
2022/11/29 01:14:13;;;;;;;38.63;13.32;;;;;;;9.01;71.51;101576.81;5050507;28;20052;-43
2022/11/29 01:16:39;;;;;;;35.22;13.68;;;;;;;9.08;71.38;101572.69;5050269;28;20052;-45
2022/11/29 01:19:06;;;;;;;35.08;13.73;;;;;;;9.00;71.83;101576.75;5050175;28;20424;-42
2022/11/29 01:21:31;;;;;;;34.42;13.55;;;;;;;9.09;71.52;101572.72;5050295;28;20417;-40
2022/11/29 01:23:58;;;;;;;36.47;14.60;;;;;;;9.02;71.61;101580.31;5050821;28;20036;-45
2022/11/29 01:26:26;;;;;;;36.75;14.05;;;;;;;8.98;71.67;101576.72;5050394;28;20033;-40
2022/11/29 01:28:53;;;;;;;41.20;14.48;;;;;;;8.94;71.80;101577.47;5049206;28;20027;-43
2022/11/29 01:31:25;;;;;;;40.03;14.93;;;;;;;8.88;71.99;101575.56;5049992;28;20555;-45
2022/11/29 01:33:55;;;;;;;36.38;13.75;;;;;;;8.97;71.99;101580.13;5050636;28;20397;-42
2022/11/29 01:36:21;;;;;;;31.90;12.07;;;;;;;9.04;70.80;101586.41;5050410;28;20028;-43
2022/11/29 01:38:46;;;;;;;32.88;13.15;;;;;;;9.07;70.66;101587.41;5050277;28;20040;-42
2022/11/29 01:41:15;;;;;;;40.50;14.52;;;;;;;9.06;70.90;101593.44;5050173;28;20052;-44
2022/11/29 01:44:12;;;;;;;39.25;15.20;;;;;;;8.90;71.40;101591.22;5050287;28;20533;-43
2022/11/29 01:46:40;;;;;;;33.53;15.13;;;;;;;9.04;71.44;101589.91;4996721;28;20040;-43
2022/11/29 01:49:16;;;;;;;33.88;14.48;;;;;;;9.05;71.18;101598.59;5050215;28;20432;-46
2022/11/29 01:51:49;;;;;;;46.28;15.40;;;;;;;8.75;72.00;101594.19;5050833;28;20029;-48
2022/11/29 01:54:14;;;;;;;50.72;15.63;;;;;;;8.59;72.52;101594.53;5057374;28;20030;-45
2022/11/29 01:56:43;;;;;;;38.53;15.13;;;;;;;8.84;71.64;101599.66;5056974;28;20028;-43
2022/11/29 01:59:13;;;;;;;38.42;15.77;;;;;;;8.80;71.65;101602.13;5057246;28;20381;-46
2022/11/29 02:01:38;;;;;;;51.22;15.52;;;;;;;8.71;72.15;101601.84;5056581;28;20032;-43
2022/11/29 02:04:05;;;;;;;76.68;16.83;;;;;;;8.73;72.13;101611.44;5056495;28;20021;-42
2022/11/29 02:06:31;;;;;;;92.40;16.50;;;;;;;8.78;72.57;101612.47;5056781;28;20033;-43
2022/11/29 02:08:57;;;;;;;58.35;16.20;;;;;;;8.81;72.35;101609.97;5057008;28;20417;-46
2022/11/29 02:11:50;;;;;;;66.70;16.88;;;;;;;8.87;72.41;101611.91;5056548;28;20032;-43
2022/11/29 02:14:29;;;;;;;76.15;16.95;;;;;;;8.82;72.55;101614.34;5057036;28;20040;-43
2022/11/29 02:16:55;;;;;;;47.97;15.77;;;;;;;8.96;72.15;101615.66;5059113;28;20024;-43
2022/11/29 02:19:51;;;;;;;83.90;16.75;;;;;;;8.92;72.44;101613.81;5057998;28;20032;-46
2022/11/29 02:22:29;;;;;;;53.60;15.90;;;;;;;8.90;72.42;101618.06;5056120;28;20029;-44
2022/11/29 02:25:21;;;;;;;81.13;16.40;;;;;;;8.78;72.58;101611.63;5056531;28;20539;-43
2022/11/29 02:28:19;;;;;;;86.38;16.70;;;;;;;8.84;73.58;101617.00;5057143;28;20037;-44
2022/11/29 02:31:41;;;;;;;121.22;18.67;;;;;;;8.73;74.28;101620.97;5056547;28;20029;-42
2022/11/29 02:34:15;;;;;;;52.45;16.70;;;;;;;9.07;73.37;101620.34;4994551;28;20042;-44
2022/11/29 02:37:18;;;;;;;74.10;17.13;;;;;;;9.10;72.80;101629.09;4994834;28;20509;-44
2022/11/29 02:39:55;;;;;;;69.57;16.05;;;;;;;9.14;73.23;101627.50;4966317;28;20053;-44
2022/11/29 02:42:47;;;;;;;55.00;16.92;;;;;;;9.30;72.50;101637.53;5048219;28;20527;-44
2022/11/29 02:45:25;;;;;;;94.03;17.00;;;;;;;9.08;73.18;101641.19;5060268;28;20033;-43
2022/11/29 02:48:02;;;;;;;64.78;16.10;;;;;;;9.15;73.10;101650.09;5060771;28;20017;-43
2022/11/29 02:50:33;;;;;;;46.13;15.48;;;;;;;9.27;72.85;101650.47;5059939;28;20048;-43
2022/11/29 02:53:02;;;;;;;42.45;15.15;;;;;;;9.36;72.62;101648.13;5060341;28;20385;-42
2022/11/29 02:55:28;;;;;;;36.53;14.15;;;;;;;9.40;72.27;101654.28;5060722;28;20032;-43
2022/11/29 02:58:07;;;;;;;44.08;15.05;;;;;;;9.38;72.53;101648.19;5057167;28;20036;-42
2022/11/29 03:00:40;;;;;;;39.85;14.95;;;;;;;9.32;72.46;101649.78;5056439;28;20017;-42
2022/11/29 03:03:17;;;;;;;45.63;15.10;;;;;;;9.28;72.15;101647.88;5056917;28;20366;-44
2022/11/29 03:06:09;;;;;;;31.48;12.88;;;;;;;9.32;71.82;101651.47;5069425;23;20032;-39
2022/11/29 03:08:46;;;;;;;37.17;14.25;;;;;;;9.30;71.97;101661.84;5031209;28;20494;-44
2022/11/29 03:11:26;;;;;;;43.22;14.40;;;;;;;9.25;71.94;101666.03;5032285;28;20021;-43
2022/11/29 03:14:03;;;;;;;34.17;13.85;;;;;;;9.29;72.53;101653.97;5032444;28;20034;-43
2022/11/29 03:16:43;;;;;;;53.95;14.55;;;;;;;9.30;72.36;101660.94;5032463;28;20025;-44
2022/11/29 03:19:28;;;;;;;28.52;12.85;;;;;;;9.43;72.29;101667.41;5032324;28;20041;-45
2022/11/29 03:22:06;;;;;;;45.53;14.60;;;;;;;9.42;72.10;101668.25;5032031;28;20028;-42
2022/11/29 03:24:43;;;;;;;33.67;12.95;;;;;;;9.38;72.19;101674.22;5032464;28;20420;-42
2022/11/29 03:27:12;;;;;;;46.90;14.60;;;;;;;9.17;72.76;101670.09;5032063;28;20329;-42
2022/11/29 03:29:46;;;;;;;39.55;14.80;;;;;;;9.23;72.97;101672.88;5032105;28;20028;-43
2022/11/29 03:32:29;;;;;;;124.53;17.08;;;;;;;8.82;73.62;101673.28;5032472;28;20128;-41
2022/11/29 03:35:03;;;;;;;51.97;15.38;;;;;;;9.06;73.63;101676.66;5032362;28;20029;-42
2022/11/29 03:37:50;;;;;;;38.30;15.27;;;;;;;9.18;73.27;101678.78;5032137;28;20034;-45
2022/11/29 03:40:23;;;;;;;34.72;14.95;;;;;;;9.32;72.74;101677.50;5031820;28;20025;-42
2022/11/29 03:42:49;;;;;;;31.70;13.40;;;;;;;9.40;72.59;101683.81;5031858;28;20068;-45
2022/11/29 03:45:54;;;;;;;104.22;15.45;;;;;;;9.30;73.20;101680.06;5030475;28;20029;-48
2022/11/29 03:48:30;;;;;;;24.80;12.05;;;;;;;9.45;73.19;101683.97;5030900;28;20049;-43
2022/11/29 03:51:02;;;;;;;49.17;14.25;;;;;;;9.44;72.85;101692.63;5033289;28;20449;-42
2022/11/29 03:53:46;;;;;;;40.83;14.02;;;;;;;9.43;72.52;101691.72;5036022;28;20025;-47
2022/11/29 03:56:27;;;;;;;44.55;14.40;;;;;;;9.42;72.48;101696.88;5034515;28;20031;-45
2022/11/29 03:59:12;;;;;;;47.15;14.23;;;;;;;9.32;72.98;101699.22;5031914;28;20452;-46
2022/11/29 04:01:58;;;;;;;36.55;14.20;;;;;;;9.44;72.94;101701.31;5031867;28;20029;-46
2022/11/29 04:04:48;;;;;;;47.35;15.00;;;;;;;9.41;72.81;101708.13;5032611;28;20026;-43
2022/11/29 04:07:33;;;;;;;28.85;13.13;;;;;;;9.55;72.17;101707.72;5031287;28;20021;-40
2022/11/29 04:10:42;;;;;;;52.58;15.00;;;;;;;9.58;72.12;101718.22;5031335;28;20029;-43
2022/11/29 04:13:34;;;;;;;48.17;14.95;;;;;;;9.60;72.47;101716.56;5031538;28;20028;-50
2022/11/29 04:16:18;;;;;;;37.88;14.20;;;;;;;9.61;72.40;101709.63;5030617;28;20473;-43
2022/11/29 04:18:59;;;;;;;60.20;14.85;;;;;;;9.55;72.96;101714.66;5031320;28;20037;-44
2022/11/29 04:21:34;;;;;;;34.38;13.65;;;;;;;9.72;72.69;101718.63;5030854;28;20030;-43
2022/11/29 04:24:34;;;;;;;56.35;14.60;;;;;;;9.55;72.72;101718.13;5031320;28;20266;-43
2022/11/29 04:27:09;;;;;;;26.35;13.05;;;;;;;9.72;72.48;101718.63;5031230;28;20334;-42
2022/11/29 04:29:44;;;;;;;57.42;13.73;;;;;;;9.51;72.78;101710.19;5030928;28;20405;-42
2022/11/29 04:32:18;;;;;;;75.35;15.30;;;;;;;9.39;73.32;101728.03;5030787;28;20033;-43
2022/11/29 04:35:00;;;;;;;102.43;16.42;;;;;;;9.41;73.59;101726.34;5031293;28;20113;-42
2022/11/29 04:37:55;;;;;;;40.08;14.50;;;;;;;9.48;73.85;101720.50;5030679;28;20099;-42
2022/11/29 04:40:42;;;;;;;102.53;15.90;;;;;;;9.41;73.65;101726.34;5030788;28;20017;-40
2022/11/29 04:43:32;;;;;;;40.25;14.07;;;;;;;9.58;73.33;101718.22;5031027;28;20025;-47
2022/11/29 04:45:57;;;;;;;117.45;16.90;;;;;;;9.52;73.13;101725.84;5030482;28;20029;-45
2022/11/29 04:48:46;;;;;;;146.23;19.48;;;;;;;9.47;73.44;101724.81;5030611;28;20437;-42
2022/11/29 04:51:28;;;;;;;62.25;16.02;;;;;;;9.59;73.37;101724.31;5030299;28;20021;-42
2022/11/29 04:54:08;;;;;;;132.52;16.45;;;;;;;9.49;73.65;101728.34;5029194;28;20498;-41
2022/11/29 04:56:43;;;;;;;123.55;16.85;;;;;;;9.52;73.39;101737.97;5030542;28;20029;-45
2022/11/29 04:59:35;;;;;;;164.30;18.88;;;;;;;9.47;73.89;101735.22;5030514;28;20072;-44
2022/11/29 05:02:30;;;;;;;54.85;16.20;;;;;;;9.64;73.02;101740.94;5030091;28;20025;-43
2022/11/29 05:05:21;;;;;;;157.30;17.10;;;;;;;9.69;73.18;101748.09;5030659;28;20432;-45
2022/11/29 05:07:52;;;;;;;131.68;17.90;;;;;;;9.48;74.17;101746.53;5030342;28;20033;-47
2022/11/29 05:10:39;;;;;;;220.50;19.77;;;;;;;9.53;74.46;101751.03;5028948;28;20029;-40
2022/11/29 05:13:30;;;;;;;83.55;16.63;;;;;;;9.70;73.72;101749.84;5030222;28;20041;-42
2022/11/29 05:16:12;;;;;;;145.70;18.40;;;;;;;9.86;73.08;101761.63;5030119;28;20040;-45
2022/11/29 05:19:14;;;;;;;57.47;17.00;;;;;;;9.88;73.19;101756.47;5030143;28;20540;-48
2022/11/29 05:21:55;;;;;;;123.63;18.15;;;;;;;9.86;73.43;101760.72;5029928;28;20021;-43
2022/11/29 05:24:26;;;;;;;218.07;21.15;;;;;;;9.62;74.08;101753.94;5030515;28;20512;-41
2022/11/29 05:27:09;;;;;;;229.18;21.20;;;;;;;9.56;74.12;101752.88;5029867;28;20025;-48
2022/11/29 05:29:45;;;;;;;104.82;18.58;;;;;;;9.61;74.52;101757.38;5030060;28;20029;-44
2022/11/29 05:32:27;;;;;;;240.68;21.58;;;;;;;9.41;74.71;101763.66;5030200;28;20026;-45
2022/11/29 05:35:27;;;;;;;31.13;16.63;;;;;;;9.88;73.38;101769.47;5030100;28;20029;-43
2022/11/29 05:37:55;;;;;;;202.70;21.83;;;;;;;9.62;73.27;101766.06;5029956;28;20136;-41
2022/11/29 05:40:36;;;;;;;67.60;16.13;;;;;;;9.73;73.08;101772.50;5029807;28;20389;-41
2022/11/29 05:43:13;;;;;;;27.05;15.10;;;;;;;9.66;72.95;101773.13;5030501;28;20051;-42
2022/11/29 05:45:51;;;;;;;139.18;17.85;;;;;;;9.13;74.25;101777.50;5030523;28;20057;-45
2022/11/29 05:48:25;;;;;;;152.65;18.25;;;;;;;8.98;74.55;101792.56;5030561;28;20025;-41
2022/11/29 05:51:14;;;;;;;111.90;18.42;;;;;;;9.02;74.69;101798.78;5030042;28;20022;-44
2022/11/29 05:54:04;;;;;;;120.85;19.80;;;;;;;9.07;74.36;101802.41;5012851;28;20073;-48
2022/11/29 05:56:35;;;;;;;75.88;16.63;;;;;;;9.26;73.94;101795.28;5036689;28;20056;-48
2022/11/29 05:59:17;;;;;;;97.95;17.80;;;;;;;9.16;74.50;101797.50;5030968;28;20030;-45
2022/11/29 06:01:55;;;;;;;61.45;16.05;;;;;;;9.27;74.01;101806.59;5029839;28;20035;-43
2022/11/29 06:04:38;;;;;;;34.42;16.00;;;;;;;9.43;73.67;101813.16;5029617;28;20049;-44
2022/11/29 06:07:18;;;;;;;35.33;15.38;;;;;;;9.51;73.13;101812.59;5029380;28;20029;-43
2022/11/29 06:09:50;;;;;;;47.38;15.48;;;;;;;9.59;73.22;101813.69;5029629;28;20296;-42
2022/11/29 06:12:19;;;;;;;61.25;15.68;;;;;;;9.66;73.18;101820.00;5029191;28;20398;-42
2022/11/29 06:14:51;;;;;;;79.57;16.45;;;;;;;9.58;73.26;101821.44;5030071;28;20103;-45
2022/11/29 06:17:41;;;;;;;74.45;16.83;;;;;;;9.47;73.66;101828.03;5029367;28;20091;-48
2022/11/29 06:20:34;;;;;;;107.15;17.13;;;;;;;9.20;74.68;101836.72;5029637;28;20045;-45
2022/11/29 06:23:22;;;;;;;139.15;18.63;;;;;;;9.11;74.94;101836.38;5029655;28;20029;-42
2022/11/29 06:26:09;;;;;;;72.50;17.40;;;;;;;9.39;74.43;101838.22;5029485;28;20021;-44
2022/11/29 06:28:53;;;;;;;101.95;16.75;;;;;;;9.50;74.20;101841.16;5029604;28;20452;-41
2022/11/29 06:31:30;;;;;;;94.47;17.15;;;;;;;9.48;73.97;101850.63;5029265;28;20029;-44
2022/11/29 06:34:08;;;;;;;64.18;15.90;;;;;;;9.64;73.85;101843.38;5030022;28;20044;-46
2022/11/29 06:37:10;;;;;;;55.22;16.52;;;;;;;9.73;73.32;101840.19;5030529;28;20021;-43
2022/11/29 06:39:36;;;;;;;109.70;17.90;;;;;;;9.54;73.95;101851.72;5032000;28;20025;-47
2022/11/29 06:42:01;;;;;;;92.65;18.20;;;;;;;9.63;74.17;101846.84;5034356;28;20021;-43
2022/11/29 06:44:26;;;;;;;58.70;16.05;;;;;;;9.72;73.65;101848.84;5034570;28;20111;-43
2022/11/29 06:47:24;;;;;;;90.78;18.25;;;;;;;9.68;73.61;101849.56;5035290;28;20027;-42
2022/11/29 06:50:01;;;;;;;29.42;14.00;;;;;;;9.81;73.35;101856.97;5034320;28;20528;-41
2022/11/29 06:52:53;;;;;;;54.25;16.08;;;;;;;9.82;73.12;101865.66;5034942;28;20382;-42
2022/11/29 06:55:26;;;;;;;47.83;15.75;;;;;;;9.88;73.33;101865.84;5035791;28;20112;-49
2022/11/29 06:57:57;;;;;;;128.70;20.08;;;;;;;9.73;73.15;101868.84;5034672;28;20152;-41
2022/11/29 07:00:25;;;;;;;56.53;16.83;;;;;;;9.81;73.08;101877.78;5036156;28;20484;-45
2022/11/29 07:03:22;;;;;;;100.55;17.02;;;;;;;9.75;73.49;101867.19;5037650;28;20021;-49
2022/11/29 07:05:48;;;;;;;76.82;17.02;;;;;;;9.84;73.53;101871.78;5042706;28;20040;-45
2022/11/29 07:08:19;;;;;;;42.92;16.70;;;;;;;9.86;73.42;101876.22;5047893;28;20005;-42
2022/11/29 07:10:48;;;;;;;53.75;16.00;;;;;;;9.86;72.91;101884.03;5037671;28;20109;-42
2022/11/29 07:13:15;;;;;;;79.60;16.88;;;;;;;9.82;72.92;101892.56;5034286;28;20025;-47
2022/11/29 07:15:49;;;;;;;71.38;16.85;;;;;;;9.83;73.54;101893.44;5034679;28;20083;-43
2022/11/29 07:18:36;;;;;;;59.53;16.63;;;;;;;9.85;72.86;101889.19;5034898;28;20045;-42
2022/11/29 07:21:44;;;;;;;39.28;16.13;;;;;;;9.90;72.93;101896.31;5032690;28;20032;-40
2022/11/29 07:24:34;;;;;;;39.97;15.30;;;;;;;9.93;72.90;101904.22;5033255;28;20040;-42
2022/11/29 07:27:05;;;;;;;28.80;14.38;;;;;;;9.91;72.77;101908.50;5033331;28;20025;-43
2022/11/29 07:30:00;;;;;;;51.88;16.25;;;;;;;9.97;72.53;101910.41;5033030;28;20025;-44
2022/11/29 07:32:42;;;;;;;24.33;13.88;;;;;;;10.00;72.65;101928.75;5032407;28;20494;-45
2022/11/29 07:35:28;;;;;;;55.45;16.25;;;;;;;9.99;72.50;101919.16;5032951;28;20029;-43
2022/11/29 07:38:28;;;;;;;96.72;16.58;;;;;;;9.93;72.65;101925.06;5032425;28;20393;-45
2022/11/29 07:40:56;;;;;;;40.75;14.80;;;;;;;10.01;72.50;101927.91;5029901;28;20129;-45
2022/11/29 07:43:30;;;;;;;27.33;13.82;;;;;;;10.07;73.13;101928.97;5032065;28;20026;-44
2022/11/29 07:45:56;;;;;;;44.17;14.93;;;;;;;10.04;73.05;101938.44;5032132;28;20029;-42
2022/11/29 07:48:22;;;;;;;30.73;13.38;;;;;;;10.08;72.83;101935.97;5032211;28;20025;-45
2022/11/29 07:50:47;;;;;;;35.17;13.90;;;;;;;9.98;72.85;101938.25;5033127;28;20021;-41
2022/11/29 07:53:20;;;;;;;33.67;14.65;;;;;;;10.09;72.85;101945.56;5039050;28;20076;-43
2022/11/29 07:55:46;;;;;;;56.22;14.88;;;;;;;10.06;72.65;101942.84;5037346;28;20037;-48
2022/11/29 07:58:14;;;;;;;69.05;14.63;;;;;;;10.03;73.16;101947.97;5032846;28;20565;-47
2022/11/29 08:00:41;;;;;;;71.65;16.35;;;;;;;10.02;73.28;101954.00;5031848;28;20282;-45
2022/11/29 08:03:07;;;;;;;62.13;16.05;;;;;;;10.04;73.29;101949.75;5031741;28;20029;-43
2022/11/29 08:05:34;;;;;;;71.32;16.75;;;;;;;10.02;72.94;101950.53;5031491;28;20087;-43
2022/11/29 08:07:59;;;;;;;56.45;16.00;;;;;;;10.01;73.37;101952.22;5032369;28;20040;-43
2022/11/29 08:10:25;;;;;;;47.85;16.20;;;;;;;10.03;73.09;101957.50;5032457;28;20018;-45
2022/11/29 08:12:51;;;;;;;59.25;16.40;;;;;;;10.08;73.37;101956.81;5032753;28;20505;-44
2022/11/29 08:15:21;;;;;;;44.78;14.88;;;;;;;10.12;73.31;101956.06;5031652;28;20087;-39
2022/11/29 08:17:46;;;;;;;80.22;15.88;;;;;;;10.04;73.37;101954.97;5029653;28;20496;-44
2022/11/29 08:20:13;;;;;;;44.45;14.73;;;;;;;10.05;73.10;101958.44;5030219;28;20021;-45
2022/11/29 08:22:39;;;;;;;42.95;15.18;;;;;;;10.02;73.39;101969.63;5030695;28;20025;-43
2022/11/29 08:25:06;;;;;;;72.00;15.32;;;;;;;10.09;72.92;101968.13;5031878;28;20052;-41
2022/11/29 08:27:32;;;;;;;28.58;13.57;;;;;;;10.13;72.97;101975.19;5031154;28;20021;-42
2022/11/29 08:29:57;;;;;;;73.30;16.58;;;;;;;10.20;73.12;101977.19;5031336;28;20167;-42
2022/11/29 08:32:22;;;;;;;28.55;13.40;;;;;;;10.31;72.83;101977.53;5030832;28;20544;-45
2022/11/29 08:34:48;;;;;;;32.60;13.60;;;;;;;10.42;73.12;101973.56;5031200;28;20188;-43
2022/11/29 08:37:13;;;;;;;26.38;13.18;;;;;;;10.35;72.72;101977.72;5030802;28;20124;-41
2022/11/29 08:39:38;;;;;;;28.58;13.05;;;;;;;10.43;72.43;101977.97;5031190;28;20025;-45
2022/11/29 08:42:04;;;;;;;72.90;14.65;;;;;;;10.43;72.51;101976.22;5030778;28;20022;-42
2022/11/29 08:44:29;;;;;;;34.85;13.10;;;;;;;10.37;72.89;101976.00;5030925;28;20025;-42
2022/11/29 08:55:06;;;;;;;28.92;14.00;;;;;;;10.63;72.44;101982.03;5031236;28;20092;-45
2022/11/29 08:57:32;;;;;;;65.43;14.30;;;;;;;10.57;72.97;101987.97;5030486;28;20049;-41
2022/11/29 08:59:57;;;;;;;23.15;12.93;;;;;;;10.74;73.28;101991.06;5030704;28;20047;-42
2022/11/29 09:02:22;;;;;;;56.65;14.57;;;;;;;10.69;72.95;101990.06;5029969;28;20033;-41
2022/11/29 09:04:48;;;;;;;62.35;14.68;;;;;;;10.54;73.18;102006.13;5030954;28;20045;-44
2022/11/29 09:07:14;;;;;;;50.35;14.27;;;;;;;10.62;73.33;102002.84;5054601;23;20068;-41
2022/11/29 09:09:39;;;;;;;94.30;16.10;;;;;;;10.53;73.03;102001.75;5030855;28;20037;-40
2022/11/29 09:12:07;;;;;;;105.47;16.58;;;;;;;9.69;75.65;102023.22;5031033;28;20021;-40
2022/11/29 09:14:33;;;;;;;28.48;13.93;;;;;;;10.23;74.86;102013.81;5031279;28;20061;-42
2022/11/29 09:16:58;;;;;;;169.05;17.08;;;;;;;10.17;74.01;102021.41;5030297;28;20052;-41
2022/11/29 09:19:23;;;;;;;48.50;13.30;;;;;;;10.34;73.59;102017.66;5031105;28;20033;-37
2022/11/29 09:21:49;;;;;;;52.80;13.65;;;;;;;10.56;73.44;102021.81;5031144;28;20049;-45
2022/11/29 09:24:14;;;;;;;37.63;14.00;;;;;;;10.66;73.31;102017.78;5032618;28;20479;-42
2022/11/29 09:26:41;;;;;;;39.35;13.77;;;;;;;10.72;73.11;102020.59;5032453;28;20033;-43
2022/11/29 09:29:07;;;;;;;95.43;14.05;;;;;;;10.61;73.25;102028.09;5030999;28;20634;-40
2022/11/29 09:31:33;;;;;;;131.50;15.65;;;;;;;10.40;73.86;102035.19;5030628;28;20090;-40
2022/11/29 09:33:59;;;;;;;27.02;13.05;;;;;;;10.66;73.59;102034.31;5030806;28;20026;-38
2022/11/29 09:36:25;;;;;;;55.28;14.02;;;;;;;10.84;72.78;102044.44;5030589;28;20496;-41
2022/11/29 09:38:50;;;;;;;61.58;13.85;;;;;;;10.86;73.40;102041.00;5032523;28;20517;-38
2022/11/29 09:41:37;;;;;;;45.75;14.00;;;;;;;10.91;73.46;102041.19;5032251;28;20032;-39
2022/11/29 09:44:27;;;;;;;39.05;13.93;;;;;;;11.09;73.07;102046.97;5030725;28;20029;-41
2022/11/29 09:47:11;;;;;;;48.65;14.05;;;;;;;11.12;72.91;102043.53;5030937;28;20028;-43
2022/11/29 09:49:37;;;;;;;111.65;16.50;;;;;;;10.80;73.30;102051.25;5031138;28;20029;-41
2022/11/29 09:52:21;;;;;;;56.50;15.80;;;;;;;10.78;73.70;102062.50;5031048;28;20029;-42
2022/11/29 09:54:55;;;;;;;59.58;15.55;;;;;;;10.92;73.63;102062.06;5033322;28;20021;-40
2022/11/29 09:57:23;;;;;;;36.58;14.98;;;;;;;11.07;73.06;102059.06;5033293;28;20065;-40
2022/11/29 09:59:54;;;;;;;77.55;16.83;;;;;;;10.88;74.00;102057.63;5032926;28;20021;-41
2022/11/29 10:02:30;;;;;;;51.25;16.08;;;;;;;11.10;73.65;102059.13;5030011;28;20029;-40
2022/11/29 10:05:00;;;;;;;61.33;17.08;;;;;;;11.26;73.82;102057.88;5030077;28;20040;-40
2022/11/29 10:07:41;;;;;;;49.13;17.50;;;;;;;11.44;73.42;102055.81;5028367;28;20072;-41
2022/11/29 10:10:16;;;;;;;58.42;17.08;;;;;;;11.38;73.48;102045.19;5029921;28;20030;-38
2022/11/29 10:13:00;;;;;;;;;;;;;;;11.39;73.08;102046.97;5031410;28;20028;-41
2022/11/29 10:15:29;;;;;;;55.88;17.33;;;;;;;11.36;73.41;102052.97;5034285;28;19909;-42
2022/11/29 10:18:09;;;;;;;52.88;17.48;;;;;;;11.60;73.09;102046.66;5033925;28;20025;-40
2022/11/29 10:20:40;;;;;;;50.85;17.80;;;;;;;11.71;73.08;102059.16;5033299;28;20022;-42
2022/11/29 10:23:20;;;;;;;86.47;18.48;;;;;;;11.12;73.82;102059.19;5033659;28;20053;-41
2022/11/29 10:25:49;;;;;;;44.65;17.13;;;;;;;11.87;72.46;102063.13;5033897;28;20032;-41
2022/11/29 10:28:17;;;;;;;51.92;18.02;;;;;;;11.61;73.21;102059.78;5034065;28;20037;-42
2022/11/29 10:30:44;;;;;;;58.33;17.85;;;;;;;11.82;72.71;102063.88;5033351;28;20026;-42
2022/11/29 10:33:19;;;;;;;50.20;16.80;;;;;;;12.20;71.80;102055.28;5033875;28;20029;-40
2022/11/29 10:35:47;;;;;;;66.28;17.45;;;;;;;11.79;71.99;102059.44;5035234;28;20025;-37
2022/11/29 10:38:14;;;;;;;33.05;15.73;;;;;;;12.11;72.10;102061.19;5034278;28;20333;-41
2022/11/29 10:40:45;;;;;;;48.00;17.27;;;;;;;11.93;71.99;102062.41;5033667;28;20060;-42
2022/11/29 10:43:11;;;;;;;44.47;17.20;;;;;;;11.77;72.63;102055.91;5033975;28;20045;-42
2022/11/29 10:45:44;;;;;;;50.88;17.33;;;;;;;11.44;72.90;102053.19;5036148;28;20493;-41
2022/11/29 10:48:16;;;;;;;55.55;18.58;;;;;;;11.27;73.57;102062.28;5036422;28;20041;-41
2022/11/29 10:50:43;;;;;;;89.43;18.15;;;;;;;11.46;72.36;102064.59;5036287;28;20025;-38
2022/11/29 10:53:29;;;;;;;53.15;18.67;;;;;;;11.48;73.57;102067.22;5036649;28;20033;-42
2022/11/29 10:56:21;;;;;;;57.85;18.05;;;;;;;11.46;73.17;102066.31;5034416;28;20075;-40
2022/11/29 10:59:03;;;;;;;48.25;17.75;;;;;;;11.72;72.77;102065.28;5033196;28;20103;-40
2022/11/29 11:01:36;;;;;;;36.28;17.00;;;;;;;11.96;72.00;102060.75;5032911;28;20041;-44
2022/11/29 11:04:03;;;;;;;61.17;17.65;;;;;;;11.75;72.43;102062.81;5033196;28;20032;-40
2022/11/29 11:06:48;;;;;;;46.08;16.55;;;;;;;11.65;72.74;102069.44;5033270;28;20026;-43
2022/11/29 11:09:20;;;;;;;44.08;16.15;;;;;;;12.06;72.44;102072.34;5034198;28;20025;-41
2022/11/29 11:11:51;;;;;;;43.13;16.15;;;;;;;12.18;72.30;102070.94;5035530;28;20053;-41
2022/11/29 11:14:22;;;;;;;53.17;18.73;;;;;;;11.96;73.32;102080.78;5037261;28;20033;-42
2022/11/29 11:16:47;;;;;;;59.80;17.38;;;;;;;11.92;73.39;102079.81;5035327;28;20543;-40
2022/11/29 11:19:27;;;;;;;55.63;17.20;;;;;;;11.67;73.76;102074.72;5034540;28;20033;-43
2022/11/29 11:21:58;;;;;;;61.60;17.50;;;;;;;11.73;73.20;102073.22;5031189;28;20095;-43
2022/11/29 11:24:27;;;;;;;37.80;17.13;;;;;;;12.16;72.84;102080.47;5032468;28;20036;-41
2022/11/29 11:26:53;;;;;;;42.78;16.15;;;;;;;12.18;72.63;102073.56;5032894;28;20028;-43
2022/11/29 11:29:23;;;;;;;34.72;16.70;;;;;;;12.24;72.48;102071.94;5032860;28;20030;-44
2022/11/29 11:31:55;;;;;;;71.32;17.38;;;;;;;12.39;72.44;102072.31;5032562;28;20022;-41
2022/11/29 11:34:30;;;;;;;37.20;15.57;;;;;;;12.52;71.99;102072.66;5038626;28;20029;-40
2022/11/29 11:37:14;;;;;;;49.38;15.90;;;;;;;12.50;71.95;102069.13;5055750;28;20569;-40
2022/11/29 11:39:44;;;;;;;32.83;15.55;;;;;;;12.44;72.45;102074.19;5055904;28;20496;-40
2022/11/29 11:42:38;;;;;;;62.25;16.30;;;;;;;12.52;71.69;102072.66;5016456;28;20032;-41
2022/11/29 11:45:20;;;;;;;42.25;16.13;;;;;;;12.53;72.31;102076.16;5013924;28;20026;-42
2022/11/29 11:48:02;;;;;;;36.40;15.60;;;;;;;12.70;72.42;102079.19;5015320;28;20030;-41
2022/11/29 11:50:39;;;;;;;58.40;15.95;;;;;;;12.68;72.41;102078.28;5015509;28;20034;-41
2022/11/29 11:53:27;;;;;;;83.43;16.83;;;;;;;12.63;72.40;102075.53;5015220;28;20041;-47
2022/11/29 11:55:59;;;;;;;47.35;15.63;;;;;;;12.55;73.04;102082.34;5013553;28;20030;-42
2022/11/29 11:58:31;;;;;;;41.60;15.68;;;;;;;12.56;72.78;102084.97;5012669;28;20026;-41